sensor_id;sensor_type;location;lat;lon;timestamp;pressure;altitude;pressure_sealevel;temperature;humidity
34566;BME280;20803;42.676;26.348;2022-10-15T00:01:36;98919.31;;;14.18;73.07
34566;BME280;20803;42.676;26.348;2022-10-15T00:04:02;98922.09;;;14.18;72.93
34566;BME280;20803;42.676;26.348;2022-10-15T00:06:28;98919.31;;;14.18;72.31
34566;BME280;20803;42.676;26.348;2022-10-15T00:08:53;98922.81;;;14.22;72.66
34566;BME280;20803;42.676;26.348;2022-10-15T00:11:21;98907.25;;;14.21;72.63
34566;BME280;20803;42.676;26.348;2022-10-15T00:13:47;98902.13;;;14.19;72.95
34566;BME280;20803;42.676;26.348;2022-10-15T00:16:19;98912.50;;;14.19;73.00
34566;BME280;20803;42.676;26.348;2022-10-15T00:18:45;98904.13;;;14.19;71.81
34566;BME280;20803;42.676;26.348;2022-10-15T00:21:12;98906.41;;;14.24;69.69
34566;BME280;20803;42.676;26.348;2022-10-15T00:23:38;98897.94;;;14.28;68.55
34566;BME280;20803;42.676;26.348;2022-10-15T00:26:18;98901.09;;;14.30;67.37
34566;BME280;20803;42.676;26.348;2022-10-15T00:28:45;98912.53;;;14.35;63.93
34566;BME280;20803;42.676;26.348;2022-10-15T00:31:13;98904.03;;;14.42;61.53
34566;BME280;20803;42.676;26.348;2022-10-15T00:33:39;98902.41;;;14.45;62.03
34566;BME280;20803;42.676;26.348;2022-10-15T00:36:07;98889.63;;;14.44;61.97
34566;BME280;20803;42.676;26.348;2022-10-15T00:38:33;98905.53;;;14.47;62.00
34566;BME280;20803;42.676;26.348;2022-10-15T00:40:59;98889.25;;;14.42;62.61
34566;BME280;20803;42.676;26.348;2022-10-15T00:44:01;98882.56;;;14.39;63.70
34566;BME280;20803;42.676;26.348;2022-10-15T00:46:39;98876.16;;;14.39;60.97
34566;BME280;20803;42.676;26.348;2022-10-15T00:51:43;98870.06;;;14.44;60.49
34566;BME280;20803;42.676;26.348;2022-10-15T00:54:11;98877.22;;;14.45;59.95
34566;BME280;20803;42.676;26.348;2022-10-15T00:56:40;98872.41;;;14.45;58.96
34566;BME280;20803;42.676;26.348;2022-10-15T00:59:08;98868.38;;;14.46;58.49
34566;BME280;20803;42.676;26.348;2022-10-15T01:01:34;98873.47;;;14.51;57.50
34566;BME280;20803;42.676;26.348;2022-10-15T01:04:00;98872.22;;;14.52;57.24
34566;BME280;20803;42.676;26.348;2022-10-15T01:06:27;98868.66;;;14.52;57.05
34566;BME280;20803;42.676;26.348;2022-10-15T01:08:52;98864.56;;;14.56;56.76
34566;BME280;20803;42.676;26.348;2022-10-15T01:11:29;98871.00;;;14.53;56.69
34566;BME280;20803;42.676;26.348;2022-10-15T01:16:42;98870.84;;;14.60;55.00
34566;BME280;20803;42.676;26.348;2022-10-15T01:22:07;98874.28;;;14.68;52.99
34566;BME280;20803;42.676;26.348;2022-10-15T01:24:43;98875.06;;;14.69;52.40
34566;BME280;20803;42.676;26.348;2022-10-15T01:30:04;98892.91;;;14.75;51.26
34566;BME280;20803;42.676;26.348;2022-10-15T01:37:53;98882.63;;;14.52;58.89
34566;BME280;20803;42.676;26.348;2022-10-15T01:40:25;98870.31;;;14.49;61.17
34566;BME280;20803;42.676;26.348;2022-10-15T01:43:01;98876.16;;;14.19;64.00
34566;BME280;20803;42.676;26.348;2022-10-15T01:45:36;98860.97;;;14.20;67.28
34566;BME280;20803;42.676;26.348;2022-10-15T01:48:07;98878.22;;;14.15;69.89
34566;BME280;20803;42.676;26.348;2022-10-15T01:50:37;98879.69;;;14.03;70.81
34566;BME280;20803;42.676;26.348;2022-10-15T01:53:06;98873.81;;;13.98;72.10
34566;BME280;20803;42.676;26.348;2022-10-15T01:55:33;98883.78;;;13.99;72.20
34566;BME280;20803;42.676;26.348;2022-10-15T01:58:00;98879.34;;;13.81;73.32
34566;BME280;20803;42.676;26.348;2022-10-15T02:00:27;98881.66;;;13.87;72.58
34566;BME280;20803;42.676;26.348;2022-10-15T02:02:52;98887.03;;;13.77;72.97
34566;BME280;20803;42.676;26.348;2022-10-15T02:05:27;98878.38;;;13.72;74.00
34566;BME280;20803;42.676;26.348;2022-10-15T02:07:56;98893.97;;;13.69;74.18
34566;BME280;20803;42.676;26.348;2022-10-15T02:10:27;98878.00;;;13.70;74.23
34566;BME280;20803;42.676;26.348;2022-10-15T02:21:04;98884.22;;;13.58;77.17
34566;BME280;20803;42.676;26.348;2022-10-15T02:23:37;98888.94;;;13.61;76.78
34566;BME280;20803;42.676;26.348;2022-10-15T02:26:07;98892.53;;;13.61;77.83
34566;BME280;20803;42.676;26.348;2022-10-15T02:28:37;98885.44;;;13.57;78.05
34566;BME280;20803;42.676;26.348;2022-10-15T02:31:04;98887.06;;;13.54;78.66
34566;BME280;20803;42.676;26.348;2022-10-15T02:33:32;98891.16;;;13.50;78.87
34566;BME280;20803;42.676;26.348;2022-10-15T02:35:59;98901.66;;;13.42;79.48
34566;BME280;20803;42.676;26.348;2022-10-15T02:38:26;98888.56;;;13.39;80.19
34566;BME280;20803;42.676;26.348;2022-10-15T02:40:55;98900.44;;;13.43;79.82
34566;BME280;20803;42.676;26.348;2022-10-15T02:43:21;98899.59;;;13.46;79.70
34566;BME280;20803;42.676;26.348;2022-10-15T02:45:48;98897.91;;;13.52;79.01
34566;BME280;20803;42.676;26.348;2022-10-15T02:48:14;98901.47;;;13.53;78.83
34566;BME280;20803;42.676;26.348;2022-10-15T02:50:39;98919.03;;;13.53;78.60
34566;BME280;20803;42.676;26.348;2022-10-15T02:53:05;98908.69;;;13.50;77.56
34566;BME280;20803;42.676;26.348;2022-10-15T02:55:30;98894.53;;;13.41;78.75
34566;BME280;20803;42.676;26.348;2022-10-15T02:57:56;98904.31;;;13.49;77.82
34566;BME280;20803;42.676;26.348;2022-10-15T03:00:21;98902.72;;;13.48;76.92
34566;BME280;20803;42.676;26.348;2022-10-15T03:02:46;98916.56;;;13.35;76.99
34566;BME280;20803;42.676;26.348;2022-10-15T03:05:12;98898.16;;;13.38;76.87
34566;BME280;20803;42.676;26.348;2022-10-15T03:07:37;98902.91;;;13.41;77.09
34566;BME280;20803;42.676;26.348;2022-10-15T03:10:03;98903.22;;;13.43;74.75
34566;BME280;20803;42.676;26.348;2022-10-15T03:12:29;98901.53;;;13.49;75.90
34566;BME280;20803;42.676;26.348;2022-10-15T03:14:54;98897.03;;;13.55;73.28
34566;BME280;20803;42.676;26.348;2022-10-15T03:17:19;98907.78;;;13.57;73.47
34566;BME280;20803;42.676;26.348;2022-10-15T03:19:45;98906.59;;;13.54;73.02
34566;BME280;20803;42.676;26.348;2022-10-15T03:22:10;98916.91;;;13.37;76.56
34566;BME280;20803;42.676;26.348;2022-10-15T03:24:36;98910.72;;;13.26;78.29
34566;BME280;20803;42.676;26.348;2022-10-15T03:27:01;98912.00;;;13.22;77.07
34566;BME280;20803;42.676;26.348;2022-10-15T03:29:27;98916.22;;;13.30;75.39
34566;BME280;20803;42.676;26.348;2022-10-15T03:31:52;98932.13;;;13.33;77.00
34566;BME280;20803;42.676;26.348;2022-10-15T03:34:17;98928.69;;;13.25;77.90
34566;BME280;20803;42.676;26.348;2022-10-15T03:36:43;98931.47;;;13.25;78.56
34566;BME280;20803;42.676;26.348;2022-10-15T03:39:10;98920.41;;;13.18;79.53
34566;BME280;20803;42.676;26.348;2022-10-15T03:41:36;98924.38;;;13.21;80.00
34566;BME280;20803;42.676;26.348;2022-10-15T03:44:06;98922.25;;;13.28;79.64
34566;BME280;20803;42.676;26.348;2022-10-15T03:46:33;98925.16;;;13.21;80.28
34566;BME280;20803;42.676;26.348;2022-10-15T03:48:59;98923.88;;;13.26;78.77
34566;BME280;20803;42.676;26.348;2022-10-15T03:51:24;98918.69;;;13.28;80.47
34566;BME280;20803;42.676;26.348;2022-10-15T03:53:53;98921.81;;;13.30;80.05
34566;BME280;20803;42.676;26.348;2022-10-15T03:56:19;98918.69;;;13.28;80.54
34566;BME280;20803;42.676;26.348;2022-10-15T03:58:44;98921.97;;;13.23;81.40
34566;BME280;20803;42.676;26.348;2022-10-15T04:01:11;98916.91;;;13.14;81.85
34566;BME280;20803;42.676;26.348;2022-10-15T04:03:38;98917.16;;;13.23;79.93
34566;BME280;20803;42.676;26.348;2022-10-15T04:06:03;98907.56;;;13.24;80.10
34566;BME280;20803;42.676;26.348;2022-10-15T04:08:29;98896.78;;;13.26;81.02
34566;BME280;20803;42.676;26.348;2022-10-15T04:10:54;98907.63;;;13.21;81.44
34566;BME280;20803;42.676;26.348;2022-10-15T04:13:20;98909.22;;;13.22;81.05
34566;BME280;20803;42.676;26.348;2022-10-15T04:15:45;98911.50;;;13.27;81.08
34566;BME280;20803;42.676;26.348;2022-10-15T04:18:11;98916.31;;;13.26;81.48
34566;BME280;20803;42.676;26.348;2022-10-15T04:20:37;98914.19;;;13.34;78.59
34566;BME280;20803;42.676;26.348;2022-10-15T04:23:03;98910.19;;;13.55;75.39
34566;BME280;20803;42.676;26.348;2022-10-15T04:25:28;98900.25;;;13.73;75.02
34566;BME280;20803;42.676;26.348;2022-10-15T04:27:54;98899.97;;;13.88;73.54
34566;BME280;20803;42.676;26.348;2022-10-15T04:30:19;98911.38;;;13.77;74.51
34566;BME280;20803;42.676;26.348;2022-10-15T04:32:44;98910.00;;;13.65;75.61
34566;BME280;20803;42.676;26.348;2022-10-15T04:35:10;98903.84;;;13.74;76.00
34566;BME280;20803;42.676;26.348;2022-10-15T04:37:36;98907.78;;;13.76;76.42
34566;BME280;20803;42.676;26.348;2022-10-15T04:40:02;98894.47;;;13.84;75.60
34566;BME280;20803;42.676;26.348;2022-10-15T04:42:29;98892.03;;;13.86;75.32
34566;BME280;20803;42.676;26.348;2022-10-15T04:44:55;98903.44;;;13.95;73.02
34566;BME280;20803;42.676;26.348;2022-10-15T04:47:20;98913.31;;;14.00;72.96
34566;BME280;20803;42.676;26.348;2022-10-15T04:49:46;98926.94;;;13.78;73.95
34566;BME280;20803;42.676;26.348;2022-10-15T04:52:11;98894.03;;;13.86;75.77
34566;BME280;20803;42.676;26.348;2022-10-15T04:54:36;98901.75;;;13.98;75.09
34566;BME280;20803;42.676;26.348;2022-10-15T04:57:03;98915.81;;;13.94;72.59
34566;BME280;20803;42.676;26.348;2022-10-15T04:59:29;98891.97;;;13.90;74.01
34566;BME280;20803;42.676;26.348;2022-10-15T05:01:54;98908.94;;;13.79;73.51
34566;BME280;20803;42.676;26.348;2022-10-15T05:04:19;98912.31;;;13.70;74.13
34566;BME280;20803;42.676;26.348;2022-10-15T05:06:45;98915.16;;;13.67;75.07
34566;BME280;20803;42.676;26.348;2022-10-15T05:09:10;98925.53;;;13.66;75.54
34566;BME280;20803;42.676;26.348;2022-10-15T05:11:36;98922.97;;;13.75;74.84
34566;BME280;20803;42.676;26.348;2022-10-15T05:14:02;98919.53;;;13.88;74.36
34566;BME280;20803;42.676;26.348;2022-10-15T05:16:29;98934.44;;;14.01;72.66
34566;BME280;20803;42.676;26.348;2022-10-15T05:18:58;98933.78;;;14.13;72.41
34566;BME280;20803;42.676;26.348;2022-10-15T05:21:23;98924.38;;;14.23;71.68
34566;BME280;20803;42.676;26.348;2022-10-15T05:23:49;98929.75;;;14.34;72.08
34566;BME280;20803;42.676;26.348;2022-10-15T05:26:19;98944.47;;;14.38;71.60
34566;BME280;20803;42.676;26.348;2022-10-15T05:28:44;98939.97;;;14.44;71.38
34566;BME280;20803;42.676;26.348;2022-10-15T05:31:12;98933.25;;;14.57;71.65
34566;BME280;20803;42.676;26.348;2022-10-15T05:33:38;98942.41;;;14.58;71.86
34566;BME280;20803;42.676;26.348;2022-10-15T05:38:33;98930.38;;;14.77;71.34
34566;BME280;20803;42.676;26.348;2022-10-15T05:40:58;98948.91;;;14.71;71.81
34566;BME280;20803;42.676;26.348;2022-10-15T05:43:24;98947.53;;;14.79;71.55
34566;BME280;20803;42.676;26.348;2022-10-15T05:45:53;98937.03;;;14.83;72.09
34566;BME280;20803;42.676;26.348;2022-10-15T05:48:18;98935.94;;;14.97;72.08
34566;BME280;20803;42.676;26.348;2022-10-15T05:50:44;98938.47;;;15.08;71.25
34566;BME280;20803;42.676;26.348;2022-10-15T05:53:09;98939.06;;;15.15;70.45
34566;BME280;20803;42.676;26.348;2022-10-15T05:55:34;98945.72;;;15.05;70.90
34566;BME280;20803;42.676;26.348;2022-10-15T05:58:01;98950.44;;;15.08;70.95
34566;BME280;20803;42.676;26.348;2022-10-15T06:00:27;98940.38;;;15.27;70.29
34566;BME280;20803;42.676;26.348;2022-10-15T06:02:52;98930.16;;;15.36;71.64
34566;BME280;20803;42.676;26.348;2022-10-15T06:05:18;98933.31;;;15.55;71.13
34566;BME280;20803;42.676;26.348;2022-10-15T06:07:43;98941.72;;;15.55;67.29
34566;BME280;20803;42.676;26.348;2022-10-15T06:10:09;98949.38;;;15.51;67.06
34566;BME280;20803;42.676;26.348;2022-10-15T06:12:34;98947.75;;;15.53;67.47
34566;BME280;20803;42.676;26.348;2022-10-15T06:14:59;98932.22;;;15.65;68.83
34566;BME280;20803;42.676;26.348;2022-10-15T06:17:25;98933.88;;;15.46;67.70
34566;BME280;20803;42.676;26.348;2022-10-15T06:19:50;98940.63;;;15.65;64.68
34566;BME280;20803;42.676;26.348;2022-10-15T06:22:16;98941.47;;;15.78;63.69
34566;BME280;20803;42.676;26.348;2022-10-15T06:24:41;98949.88;;;15.78;62.29
34566;BME280;20803;42.676;26.348;2022-10-15T06:27:06;98939.47;;;15.78;62.01
34566;BME280;20803;42.676;26.348;2022-10-15T06:29:34;98945.31;;;15.84;61.79
34566;BME280;20803;42.676;26.348;2022-10-15T06:31:59;98953.53;;;15.91;60.88
34566;BME280;20803;42.676;26.348;2022-10-15T06:34:26;98958.44;;;15.87;60.79
34566;BME280;20803;42.676;26.348;2022-10-15T06:36:51;98971.28;;;16.01;59.84
34566;BME280;20803;42.676;26.348;2022-10-15T06:39:16;98971.38;;;15.97;60.65
34566;BME280;20803;42.676;26.348;2022-10-15T06:41:42;98972.78;;;15.89;62.52
34566;BME280;20803;42.676;26.348;2022-10-15T06:44:07;98984.44;;;16.16;59.73
34566;BME280;20803;42.676;26.348;2022-10-15T06:46:33;98975.88;;;16.36;60.79
34566;BME280;20803;42.676;26.348;2022-10-15T06:48:58;98977.16;;;16.60;59.90
34566;BME280;20803;42.676;26.348;2022-10-15T06:51:23;98974.31;;;16.89;59.56
34566;BME280;20803;42.676;26.348;2022-10-15T06:53:49;98978.00;;;17.12;57.76
34566;BME280;20803;42.676;26.348;2022-10-15T06:56:14;98987.66;;;17.11;57.71
34566;BME280;20803;42.676;26.348;2022-10-15T06:58:40;98996.16;;;17.45;56.69
34566;BME280;20803;42.676;26.348;2022-10-15T07:01:06;99005.00;;;17.69;55.37
34566;BME280;20803;42.676;26.348;2022-10-15T07:03:33;99015.69;;;17.74;54.20
34566;BME280;20803;42.676;26.348;2022-10-15T07:06:04;99021.66;;;17.63;54.04
34566;BME280;20803;42.676;26.348;2022-10-15T07:08:30;99017.53;;;17.42;54.95
34566;BME280;20803;42.676;26.348;2022-10-15T07:10:55;99003.16;;;17.15;56.23
34566;BME280;20803;42.676;26.348;2022-10-15T07:13:20;98998.53;;;17.09;57.35
34566;BME280;20803;42.676;26.348;2022-10-15T07:15:46;98991.25;;;17.11;57.86
34566;BME280;20803;42.676;26.348;2022-10-15T07:18:13;99008.53;;;16.97;58.68
34566;BME280;20803;42.676;26.348;2022-10-15T07:20:39;98993.84;;;16.93;59.53
34566;BME280;20803;42.676;26.348;2022-10-15T07:23:04;98999.00;;;16.82;59.66
34566;BME280;20803;42.676;26.348;2022-10-15T07:25:30;98999.31;;;16.84;60.86
34566;BME280;20803;42.676;26.348;2022-10-15T07:27:56;98998.22;;;16.81;61.44
34566;BME280;20803;42.676;26.348;2022-10-15T07:30:23;99000.66;;;16.79;62.08
34566;BME280;20803;42.676;26.348;2022-10-15T07:32:51;98994.97;;;16.95;61.81
34566;BME280;20803;42.676;26.348;2022-10-15T07:35:16;98998.44;;;16.99;61.68
34566;BME280;20803;42.676;26.348;2022-10-15T07:37:42;98994.94;;;17.21;60.72
34566;BME280;20803;42.676;26.348;2022-10-15T07:40:07;98998.94;;;17.58;59.65
34566;BME280;20803;42.676;26.348;2022-10-15T07:42:33;99009.97;;;17.65;59.07
34566;BME280;20803;42.676;26.348;2022-10-15T07:44:59;99008.00;;;17.87;57.39
34566;BME280;20803;42.676;26.348;2022-10-15T07:47:24;98999.53;;;17.65;58.14
34566;BME280;20803;42.676;26.348;2022-10-15T07:49:49;98991.88;;;17.66;58.94
34566;BME280;20803;42.676;26.348;2022-10-15T07:52:15;98988.19;;;17.91;57.59
34566;BME280;20803;42.676;26.348;2022-10-15T07:54:40;98984.69;;;17.65;57.74
34566;BME280;20803;42.676;26.348;2022-10-15T07:57:06;98988.16;;;17.69;58.21
34566;BME280;20803;42.676;26.348;2022-10-15T07:59:32;98993.34;;;18.05;56.34
34566;BME280;20803;42.676;26.348;2022-10-15T08:01:58;98987.78;;;18.36;55.31
34566;BME280;20803;42.676;26.348;2022-10-15T08:04:23;98985.09;;;18.54;54.68
34566;BME280;20803;42.676;26.348;2022-10-15T08:06:49;98984.97;;;18.36;54.69
34566;BME280;20803;42.676;26.348;2022-10-15T08:09:14;98983.91;;;17.99;56.25
34566;BME280;20803;42.676;26.348;2022-10-15T08:11:40;99004.69;;;18.01;56.22
34566;BME280;20803;42.676;26.348;2022-10-15T08:14:05;98985.88;;;18.11;56.15
34566;BME280;20803;42.676;26.348;2022-10-15T08:16:30;98987.97;;;18.19;55.01
34566;BME280;20803;42.676;26.348;2022-10-15T08:18:57;98987.00;;;18.57;53.40
34566;BME280;20803;42.676;26.348;2022-10-15T08:21:22;98993.00;;;18.68;53.05
34566;BME280;20803;42.676;26.348;2022-10-15T08:23:48;98991.59;;;18.63;52.86
34566;BME280;20803;42.676;26.348;2022-10-15T08:26:15;98997.66;;;18.62;53.59
34566;BME280;20803;42.676;26.348;2022-10-15T08:28:41;98991.91;;;18.66;53.44
34566;BME280;20803;42.676;26.348;2022-10-15T08:31:06;98996.00;;;18.74;53.31
34566;BME280;20803;42.676;26.348;2022-10-15T08:33:33;98994.59;;;18.47;54.00
34566;BME280;20803;42.676;26.348;2022-10-15T08:35:59;98992.56;;;18.26;54.40
34566;BME280;20803;42.676;26.348;2022-10-15T08:38:25;98987.06;;;18.44;54.38
34566;BME280;20803;42.676;26.348;2022-10-15T08:40:55;98984.03;;;18.39;54.42
34566;BME280;20803;42.676;26.348;2022-10-15T08:45:57;98988.22;;;18.78;52.59
34566;BME280;20803;42.676;26.348;2022-10-15T08:48:33;98989.19;;;18.84;52.97
34566;BME280;20803;42.676;26.348;2022-10-15T08:51:13;99001.13;;;18.97;51.70
34566;BME280;20803;42.676;26.348;2022-10-15T08:53:44;98984.91;;;19.01;51.21
34566;BME280;20803;42.676;26.348;2022-10-15T08:56:37;99004.53;;;19.23;51.54
34566;BME280;20803;42.676;26.348;2022-10-15T09:01:45;98997.94;;;19.17;50.15
34566;BME280;20803;42.676;26.348;2022-10-15T09:07:05;99017.19;;;19.49;50.12
34566;BME280;20803;42.676;26.348;2022-10-15T09:09:43;99015.16;;;19.50;49.50
34566;BME280;20803;42.676;26.348;2022-10-15T09:14:42;99006.00;;;18.96;51.18
34566;BME280;20803;42.676;26.348;2022-10-15T09:17:24;99003.06;;;19.09;50.83
34566;BME280;20803;42.676;26.348;2022-10-15T09:19:55;99011.13;;;19.29;50.26
34566;BME280;20803;42.676;26.348;2022-10-15T09:22:24;99015.00;;;18.82;51.17
34566;BME280;20803;42.676;26.348;2022-10-15T09:24:51;99002.38;;;18.65;51.83
34566;BME280;20803;42.676;26.348;2022-10-15T09:27:33;99018.03;;;18.66;51.71
34566;BME280;20803;42.676;26.348;2022-10-15T09:35:42;99020.47;;;19.17;49.85
34566;BME280;20803;42.676;26.348;2022-10-15T09:43:47;99009.19;;;19.08;49.73
34566;BME280;20803;42.676;26.348;2022-10-15T09:46:13;99019.00;;;19.03;50.51
34566;BME280;20803;42.676;26.348;2022-10-15T09:51:28;99021.72;;;19.47;49.37
34566;BME280;20803;42.676;26.348;2022-10-15T09:56:51;99030.16;;;20.23;47.02
34566;BME280;20803;42.676;26.348;2022-10-15T09:59:19;99031.69;;;19.97;47.23
34566;BME280;20803;42.676;26.348;2022-10-15T10:02:16;99033.06;;;19.83;47.19
34566;BME280;20803;42.676;26.348;2022-10-15T10:04:42;99032.25;;;19.55;47.99
34566;BME280;20803;42.676;26.348;2022-10-15T10:07:27;99028.97;;;19.66;48.23
34566;BME280;20803;42.676;26.348;2022-10-15T10:09:55;99032.47;;;19.88;47.11
34566;BME280;20803;42.676;26.348;2022-10-15T10:12:26;99033.91;;;20.11;46.52
34566;BME280;20803;42.676;26.348;2022-10-15T10:14:55;99042.66;;;20.04;46.45
34566;BME280;20803;42.676;26.348;2022-10-15T10:17:23;99042.31;;;19.74;47.14
34566;BME280;20803;42.676;26.348;2022-10-15T10:22:50;99044.97;;;19.69;47.39
34566;BME280;20803;42.676;26.348;2022-10-15T10:27:50;99043.47;;;19.15;47.85
34566;BME280;20803;42.676;26.348;2022-10-15T10:30:16;99044.91;;;18.89;48.78
34566;BME280;20803;42.676;26.348;2022-10-15T10:32:42;99041.44;;;18.85;49.23
34566;BME280;20803;42.676;26.348;2022-10-15T10:35:19;99048.91;;;18.79;49.31
34566;BME280;20803;42.676;26.348;2022-10-15T10:37:46;99051.66;;;19.22;48.50
34566;BME280;20803;42.676;26.348;2022-10-15T10:40:31;99048.03;;;19.53;48.52
34566;BME280;20803;42.676;26.348;2022-10-15T10:45:53;99041.88;;;19.85;45.78
34566;BME280;20803;42.676;26.348;2022-10-15T10:48:28;99039.78;;;19.67;45.06
34566;BME280;20803;42.676;26.348;2022-10-15T10:53:41;99029.44;;;19.24;45.63
34566;BME280;20803;42.676;26.348;2022-10-15T10:56:10;99030.34;;;19.21;45.21
34566;BME280;20803;42.676;26.348;2022-10-15T10:58:38;99024.19;;;19.44;46.51
34566;BME280;20803;42.676;26.348;2022-10-15T11:01:03;99029.59;;;19.61;44.17
34566;BME280;20803;42.676;26.348;2022-10-15T11:03:37;99028.91;;;19.08;45.31
34566;BME280;20803;42.676;26.348;2022-10-15T11:20:05;99018.88;;;18.54;45.99
34566;BME280;20803;42.676;26.348;2022-10-15T11:22:53;99009.69;;;18.84;44.66
34566;BME280;20803;42.676;26.348;2022-10-15T11:31:02;98990.47;;;20.54;43.03
34566;BME280;20803;42.676;26.348;2022-10-15T11:36:25;98994.19;;;20.78;39.79
34566;BME280;20803;42.676;26.348;2022-10-15T11:39:19;99001.78;;;20.54;41.04
34566;BME280;20803;42.676;26.348;2022-10-15T11:42:28;99001.94;;;20.32;42.36
34566;BME280;20803;42.676;26.348;2022-10-15T11:54:28;99010.53;;;19.92;42.92
34566;BME280;20803;42.676;26.348;2022-10-15T11:57:01;99007.25;;;20.21;42.59
34566;BME280;20803;42.676;26.348;2022-10-15T11:59:38;99001.47;;;20.24;42.25
34566;BME280;20803;42.676;26.348;2022-10-15T12:04:38;98979.63;;;20.25;43.19
34566;BME280;20803;42.676;26.348;2022-10-15T12:07:12;98993.34;;;20.96;42.37
34566;BME280;20803;42.676;26.348;2022-10-15T12:09:41;99009.09;;;20.79;42.19
34566;BME280;20803;42.676;26.348;2022-10-15T12:17:29;98995.31;;;20.26;43.60
34566;BME280;20803;42.676;26.348;2022-10-15T12:20:07;98998.28;;;19.77;43.14
34566;BME280;20803;42.676;26.348;2022-10-15T12:22:36;99008.94;;;19.24;45.59
34566;BME280;20803;42.676;26.348;2022-10-15T12:25:03;99019.00;;;19.92;43.89
34566;BME280;20803;42.676;26.348;2022-10-15T12:27:35;99011.00;;;19.91;43.92
34566;BME280;20803;42.676;26.348;2022-10-15T12:32:42;99025.28;;;20.14;43.78
34566;BME280;20803;42.676;26.348;2022-10-15T12:37:39;99017.84;;;19.71;43.08
34566;BME280;20803;42.676;26.348;2022-10-15T12:40:25;99017.28;;;19.36;42.09
34566;BME280;20803;42.676;26.348;2022-10-15T12:45:26;99027.97;;;18.80;43.56
34566;BME280;20803;42.676;26.348;2022-10-15T12:48:38;99015.13;;;19.10;43.55
34566;BME280;20803;42.676;26.348;2022-10-15T12:50:44;99017.75;;;19.04;43.54
34566;BME280;20803;42.676;26.348;2022-10-15T12:56:12;99032.41;;;18.90;43.90
34566;BME280;20803;42.676;26.348;2022-10-15T12:58:52;99037.53;;;18.82;44.87
34566;BME280;20803;42.676;26.348;2022-10-15T13:06:25;99032.47;;;18.34;46.76
34566;BME280;20803;42.676;26.348;2022-10-15T13:11:48;99046.94;;;18.23;47.62
34566;BME280;20803;42.676;26.348;2022-10-15T13:16:47;99045.47;;;18.18;47.67
34566;BME280;20803;42.676;26.348;2022-10-15T13:19:36;99046.25;;;18.19;46.58
34566;BME280;20803;42.676;26.348;2022-10-15T13:22:06;99044.56;;;18.21;46.42
34566;BME280;20803;42.676;26.348;2022-10-15T13:24:43;99049.25;;;18.03;46.65
34566;BME280;20803;42.676;26.348;2022-10-15T13:29:54;99052.59;;;18.10;46.46
34566;BME280;20803;42.676;26.348;2022-10-15T13:32:20;99045.97;;;18.04;47.02
34566;BME280;20803;42.676;26.348;2022-10-15T13:34:46;99044.22;;;18.19;47.28
34566;BME280;20803;42.676;26.348;2022-10-15T13:37:16;99044.13;;;18.23;46.73
34566;BME280;20803;42.676;26.348;2022-10-15T13:39:44;99042.00;;;18.14;47.04
34566;BME280;20803;42.676;26.348;2022-10-15T13:42:20;99044.63;;;18.09;47.10
34566;BME280;20803;42.676;26.348;2022-10-15T13:44:56;99036.03;;;18.12;47.11
34566;BME280;20803;42.676;26.348;2022-10-15T13:47:32;99047.75;;;18.11;47.04
34566;BME280;20803;42.676;26.348;2022-10-15T13:52:41;99049.03;;;17.97;46.88
34566;BME280;20803;42.676;26.348;2022-10-15T13:55:19;99034.38;;;18.02;46.41
34566;BME280;20803;42.676;26.348;2022-10-15T13:57:46;99047.31;;;18.00;46.69
34566;BME280;20803;42.676;26.348;2022-10-15T14:00:24;99044.66;;;17.96;46.91
34566;BME280;20803;42.676;26.348;2022-10-15T14:05:43;99050.78;;;18.16;46.14
34566;BME280;20803;42.676;26.348;2022-10-15T14:08:27;99052.22;;;18.21;45.75
34566;BME280;20803;42.676;26.348;2022-10-15T14:10:58;99045.22;;;18.25;45.92
34566;BME280;20803;42.676;26.348;2022-10-15T14:13:24;99054.28;;;18.08;46.34
34566;BME280;20803;42.676;26.348;2022-10-15T14:15:55;99047.59;;;17.93;46.44
34566;BME280;20803;42.676;26.348;2022-10-15T14:18:35;99059.19;;;17.69;46.30
34566;BME280;20803;42.676;26.348;2022-10-15T14:21:02;99065.50;;;17.48;45.85
34566;BME280;20803;42.676;26.348;2022-10-15T14:23:28;99060.47;;;17.43;45.79
34566;BME280;20803;42.676;26.348;2022-10-15T14:25:59;99062.25;;;17.37;45.88
34566;BME280;20803;42.676;26.348;2022-10-15T14:28:28;99058.09;;;17.41;45.55
34566;BME280;20803;42.676;26.348;2022-10-15T14:30:54;99060.78;;;17.32;45.25
34566;BME280;20803;42.676;26.348;2022-10-15T14:36:25;99072.22;;;17.00;45.98
34566;BME280;20803;42.676;26.348;2022-10-15T14:38:52;99078.88;;;17.06;46.32
34566;BME280;20803;42.676;26.348;2022-10-15T14:41:54;99080.53;;;17.03;45.94
34566;BME280;20803;42.676;26.348;2022-10-15T14:44:20;99085.69;;;16.92;46.41
34566;BME280;20803;42.676;26.348;2022-10-15T14:46:48;99097.34;;;16.91;46.34
34566;BME280;20803;42.676;26.348;2022-10-15T14:49:29;99094.22;;;16.89;46.96
34566;BME280;20803;42.676;26.348;2022-10-15T14:54:32;99091.50;;;16.85;46.77
34566;BME280;20803;42.676;26.348;2022-10-15T14:56:58;99092.69;;;16.72;47.33
34566;BME280;20803;42.676;26.348;2022-10-15T14:59:28;99100.72;;;16.57;46.98
34566;BME280;20803;42.676;26.348;2022-10-15T15:01:57;99093.09;;;16.57;47.26
34566;BME280;20803;42.676;26.348;2022-10-15T15:04:36;99086.69;;;16.57;47.36
34566;BME280;20803;42.676;26.348;2022-10-15T15:07:09;99083.19;;;16.53;47.10
34566;BME280;20803;42.676;26.348;2022-10-15T15:09:36;99094.03;;;16.38;47.39
34566;BME280;20803;42.676;26.348;2022-10-15T15:12:04;99088.41;;;16.38;47.27
34566;BME280;20803;42.676;26.348;2022-10-15T15:14:30;99094.88;;;16.35;47.26
34566;BME280;20803;42.676;26.348;2022-10-15T15:16:55;99097.81;;;16.32;47.58
34566;BME280;20803;42.676;26.348;2022-10-15T15:19:21;99101.16;;;16.27;47.44